createdAt,value
2019-01-27T00:01:07.451Z,97371.56
2019-01-27T00:03:37.636Z,97356.91
2019-01-27T00:06:06.715Z,97351.52
2019-01-27T00:08:35.793Z,97348.45
2019-01-27T00:11:04.851Z,97343.52
2019-01-27T00:13:33.891Z,97340.61
2019-01-27T00:16:02.971Z,97335.39
2019-01-27T00:18:32.046Z,97327.94
2019-01-27T00:21:03.346Z,97323.31
2019-01-27T00:23:32.395Z,97318.77
2019-01-27T00:26:02.566Z,97310.48
2019-01-27T00:28:31.632Z,97301.61
2019-01-27T00:31:00.710Z,97303.20
2019-01-27T00:33:29.825Z,97304.80
2019-01-27T00:35:58.883Z,97289.14
2019-01-27T00:38:28.009Z,97288.34
2019-01-27T00:40:57.086Z,97278.62
2019-01-27T00:43:26.133Z,97264.45
2019-01-27T00:45:55.217Z,97274.09
2019-01-27T00:48:26.292Z,97264.55
2019-01-27T00:50:55.435Z,97257.83
2019-01-27T00:53:24.815Z,97253.17
2019-01-27T00:55:53.856Z,97251.66
2019-01-27T00:58:22.940Z,97248.27
2019-01-27T01:00:51.992Z,97235.91
2019-01-27T01:03:21.154Z,97234.77
2019-01-27T01:05:50.176Z,97232.77
2019-01-27T01:08:19.254Z,97223.69
2019-01-27T01:10:48.302Z,97220.36
2019-01-27T01:13:18.404Z,97203.50
2019-01-27T01:15:47.497Z,97206.25
2019-01-27T01:18:16.672Z,97202.11
2019-01-27T01:20:45.796Z,97195.86
2019-01-27T01:23:14.887Z,97191.29
2019-01-27T01:25:43.944Z,97184.12
2019-01-27T01:28:13.052Z,97180.64
2019-01-27T01:30:42.145Z,97168.46
2019-01-27T01:33:13.221Z,97166.04
2019-01-27T01:35:42.426Z,97160.11
2019-01-27T01:38:11.479Z,97157.45
2019-01-27T01:40:40.575Z,97150.36
2019-01-27T01:43:09.667Z,97151.70
2019-01-27T01:45:38.754Z,97139.34
2019-01-27T01:48:07.890Z,97138.41
2019-01-27T01:50:36.954Z,97132.28
2019-01-27T01:53:08.431Z,97133.63
2019-01-27T01:55:37.681Z,97125.64
2019-01-27T01:58:06.902Z,97122.05
2019-01-27T02:00:36.018Z,97117.99
2019-01-27T02:03:05.216Z,97114.17
2019-01-27T02:05:35.440Z,97095.45
2019-01-27T02:08:04.640Z,97083.25
2019-01-27T02:10:33.717Z,97085.06
2019-01-27T02:13:03.005Z,97075.50
2019-01-27T02:16:01.249Z,97074.84
2019-01-27T02:18:31.272Z,97057.38
2019-01-27T02:21:02.625Z,97056.69
2019-01-27T02:23:31.806Z,97048.81
2019-01-27T02:26:02.795Z,97046.64
2019-01-27T02:28:32.035Z,96902.62
2019-01-27T02:31:03.562Z,97042.06
2019-01-27T02:33:33.332Z,97029.81
2019-01-27T02:36:05.389Z,97026.03
2019-01-27T02:38:34.463Z,97028.23
2019-01-27T02:41:05.063Z,97019.85
2019-01-27T02:43:34.415Z,97010.80
2019-01-27T02:46:04.333Z,97010.77
2019-01-27T02:48:33.442Z,97012.15
2019-01-27T02:51:02.924Z,97002.06
2019-01-27T02:53:32.590Z,96997.16
2019-01-27T02:56:01.731Z,96995.80
2019-01-27T02:58:30.793Z,96993.70
2019-01-27T03:00:59.931Z,96986.12
2019-01-27T03:03:28.981Z,96987.91
2019-01-27T03:06:13.827Z,96974.91
2019-01-27T03:09:07.941Z,96970.31
2019-01-27T03:11:49.971Z,96973.27
2019-01-27T03:14:20.212Z,96955.14
2019-01-27T03:16:50.442Z,96965.20
2019-01-27T03:19:21.022Z,96962.89
2019-01-27T03:21:50.152Z,96950.56
2019-01-27T03:24:19.283Z,96946.58
2019-01-27T03:26:48.403Z,96941.48
2019-01-27T03:29:17.437Z,96946.25
2019-01-27T03:31:48.545Z,96940.03
2019-01-27T03:34:17.533Z,96923.06
2019-01-27T03:36:47.564Z,96919.09
2019-01-27T03:39:16.644Z,96922.72
2019-01-27T03:41:45.762Z,96911.20
2019-01-27T03:44:14.832Z,96913.17
2019-01-27T03:46:43.898Z,96900.80
2019-01-27T03:49:13.012Z,96890.81
2019-01-27T03:51:42.924Z,96889.64
2019-01-27T03:54:13.814Z,96880.92
2019-01-27T03:56:44.741Z,96876.00
2019-01-27T03:59:13.756Z,96879.94
2019-01-27T04:01:42.911Z,96874.19
2019-01-27T04:04:12.013Z,96874.50
2019-01-27T04:06:41.594Z,96867.11
2019-01-27T04:09:12.580Z,96861.02
2019-01-27T04:11:41.657Z,96857.23
2019-01-27T04:14:10.686Z,96859.69
2019-01-27T04:16:39.817Z,96851.14
2019-01-27T04:19:08.873Z,96856.04
2019-01-27T04:21:37.930Z,96844.38
2019-01-27T04:24:07.001Z,96840.77
2019-01-27T04:26:36.098Z,96832.37
2019-01-27T04:29:05.423Z,96823.48
2019-01-27T04:31:36.740Z,96822.17
2019-01-27T04:34:05.950Z,96824.48
2019-01-27T04:36:34.988Z,96821.02
2019-01-27T04:39:05.973Z,96818.55
2019-01-27T04:41:35.019Z,96800.45
2019-01-27T04:44:04.094Z,96791.89
2019-01-27T04:46:33.144Z,96774.45
2019-01-27T04:49:02.235Z,96776.44
2019-01-27T04:51:31.310Z,96768.69
2019-01-27T04:54:00.497Z,96770.51
2019-01-27T04:56:29.565Z,96769.51
2019-01-27T04:58:58.618Z,96768.35
2019-01-27T05:01:27.621Z,96765.73
2019-01-27T05:04:09.347Z,96749.93
2019-01-27T05:06:38.361Z,96756.35
2019-01-27T05:09:10.165Z,96743.34
2019-01-27T05:11:39.253Z,96742.86
2019-01-27T05:14:09.488Z,96729.19
2019-01-27T05:16:38.508Z,96741.03
2019-01-27T05:19:07.591Z,96719.66
2019-01-27T05:21:36.658Z,96728.38
2019-01-27T05:24:05.761Z,96726.84
2019-01-27T05:26:34.801Z,96722.92
2019-01-27T05:29:03.869Z,96730.67
2019-01-27T05:31:32.919Z,96727.84
2019-01-27T05:34:02.064Z,96727.69
2019-01-27T05:36:35.453Z,96721.09
2019-01-27T05:39:06.790Z,96725.18
2019-01-27T05:41:36.982Z,96719.11
2019-01-27T05:44:06.130Z,96715.19
2019-01-27T05:46:36.408Z,96705.97
2019-01-27T05:49:05.463Z,96698.74
2019-01-27T05:51:34.484Z,96700.41
2019-01-27T05:54:03.562Z,96698.42
2019-01-27T05:56:32.603Z,96688.88
2019-01-27T05:59:03.310Z,96686.58
2019-01-27T06:01:32.357Z,96678.00
2019-01-27T06:04:03.437Z,96680.63
2019-01-27T06:06:32.624Z,96675.69
2019-01-27T06:09:01.762Z,96676.36
2019-01-27T06:11:33.148Z,96670.14
2019-01-27T06:14:03.291Z,96676.84
2019-01-27T06:16:34.626Z,96672.60
2019-01-27T06:19:03.995Z,96667.63
2019-01-27T06:21:34.307Z,96669.27
2019-01-27T06:24:03.329Z,96667.02
2019-01-27T06:26:32.402Z,96658.77
2019-01-27T06:29:01.411Z,96660.21
2019-01-27T06:31:30.490Z,96656.65
2019-01-27T06:34:11.504Z,96652.83
2019-01-27T06:36:40.575Z,96651.70
2019-01-27T06:39:10.502Z,96648.59
2019-01-27T06:41:40.577Z,96642.81
2019-01-27T06:44:11.121Z,96635.23
2019-01-27T06:46:44.566Z,96633.92
2019-01-27T06:49:13.613Z,96631.64
2019-01-27T06:51:43.034Z,96630.33
2019-01-27T06:54:13.099Z,96634.27
2019-01-27T06:56:45.122Z,96627.33
2019-01-27T06:59:30.915Z,96627.17
2019-01-27T07:02:29.544Z,96609.90
2019-01-27T07:05:07.075Z,96614.37
2019-01-27T07:07:55.043Z,96608.11
2019-01-27T07:10:46.064Z,96612.89
2019-01-27T07:13:45.921Z,96609.42
2019-01-27T07:16:43.225Z,96609.39
2019-01-27T07:19:31.198Z,96608.75
2019-01-27T07:22:34.611Z,96612.22
2019-01-27T07:25:23.691Z,96610.22
2019-01-27T07:28:08.798Z,96608.86
2019-01-27T07:30:57.863Z,96607.42
2019-01-27T07:33:44.462Z,96599.53
2019-01-27T07:36:44.545Z,96607.95
2019-01-27T07:39:25.347Z,96599.53
2019-01-27T07:42:12.312Z,96596.63
2019-01-27T07:45:06.381Z,96602.95
2019-01-27T07:47:44.884Z,96590.33
2019-01-27T07:50:33.471Z,96592.80
2019-01-27T07:53:18.882Z,96591.31
2019-01-27T07:56:03.471Z,96585.32
2019-01-27T07:58:41.243Z,96581.09
2019-01-27T08:01:26.735Z,96577.46
2019-01-27T08:04:29.995Z,96569.73
2019-01-27T08:07:25.593Z,96573.03
2019-01-27T08:10:16.573Z,96566.61
2019-01-27T08:13:07.620Z,96562.13
2019-01-27T08:16:01.259Z,96562.16
2019-01-27T08:18:58.465Z,96559.56
2019-01-27T08:21:55.585Z,96561.19
2019-01-27T08:24:52.716Z,96559.08
2019-01-27T08:27:39.339Z,96565.98
2019-01-27T08:30:30.167Z,96560.20
2019-01-27T08:33:16.017Z,96555.72
2019-01-27T08:36:22.772Z,96569.25
2019-01-27T08:39:08.647Z,96561.47
2019-01-27T08:42:14.841Z,96553.61
2019-01-27T08:45:02.877Z,96551.83
2019-01-27T08:47:35.173Z,96558.56
2019-01-27T08:50:05.003Z,96551.72
2019-01-27T08:52:34.081Z,96550.44
2019-01-27T08:55:03.196Z,96546.42
2019-01-27T08:57:32.609Z,96544.02
2019-01-27T09:00:01.708Z,96547.18
2019-01-27T09:02:53.318Z,96543.33
2019-01-27T09:05:32.241Z,96543.78
2019-01-27T09:08:26.166Z,96546.98
2019-01-27T09:11:14.144Z,96551.61
2019-01-27T09:13:53.208Z,96541.64
2019-01-27T09:16:40.113Z,96536.95
2019-01-27T09:19:27.245Z,96536.59
2019-01-27T09:22:24.355Z,96546.59
2019-01-27T09:25:24.725Z,96539.38
2019-01-27T09:28:10.035Z,96543.73
2019-01-27T09:30:47.407Z,96539.94
2019-01-27T09:33:35.349Z,96540.66
2019-01-27T09:36:23.123Z,96540.02
2019-01-27T09:39:11.249Z,96539.06
2019-01-27T09:41:51.299Z,96536.67
2019-01-27T09:44:54.292Z,96539.52
2019-01-27T09:47:45.334Z,96539.05
2019-01-27T09:50:33.329Z,96529.31
2019-01-27T09:53:13.940Z,96525.38
2019-01-27T09:56:01.157Z,96533.75
2019-01-27T09:58:53.960Z,96538.47
2019-01-27T10:01:31.287Z,96543.45
2019-01-27T10:04:10.558Z,96531.25
2019-01-27T10:06:58.638Z,96527.06
2019-01-27T10:09:52.572Z,96518.73
2019-01-27T10:12:42.912Z,96523.11
2019-01-27T10:15:22.941Z,96526.88
2019-01-27T10:18:00.598Z,96525.21
2019-01-27T10:20:48.608Z,96525.89
2019-01-27T10:23:23.456Z,96521.44
2019-01-27T10:26:04.915Z,96531.44
2019-01-27T10:29:13.021Z,96515.48
2019-01-27T10:32:04.046Z,96511.24
2019-01-27T10:34:39.696Z,96498.12
2019-01-27T10:37:27.927Z,96492.34
2019-01-27T10:40:09.309Z,96490.22
2019-01-27T10:43:04.082Z,96484.94
2019-01-27T10:45:47.486Z,96488.47
2019-01-27T10:48:35.931Z,96484.56
2019-01-27T10:51:30.317Z,96486.16
2019-01-27T10:54:28.705Z,96483.90
2019-01-27T10:57:03.260Z,96471.09
2019-01-27T10:59:42.869Z,96463.20
2019-01-27T11:02:37.093Z,96455.33
2019-01-27T11:05:39.905Z,96456.84
2019-01-27T11:08:43.210Z,96449.17
2019-01-27T11:11:25.431Z,96448.20
2019-01-27T11:14:28.741Z,96438.92
2019-01-27T11:17:11.484Z,96437.61
2019-01-27T11:20:05.617Z,96432.55
2019-01-27T11:22:59.874Z,96427.13
2019-01-27T11:25:43.966Z,96423.42
2019-01-27T11:28:41.135Z,96414.45
2019-01-27T11:31:47.099Z,96413.35
2019-01-27T11:34:30.215Z,96403.45
2019-01-27T11:37:21.528Z,96394.88
2019-01-27T11:40:15.909Z,96392.14
2019-01-27T11:42:54.318Z,96386.98
2019-01-27T11:45:32.582Z,96384.51
2019-01-27T11:48:31.351Z,96382.81
2019-01-27T11:51:20.630Z,96369.30
2019-01-27T11:53:49.822Z,96360.88
2019-01-27T11:56:19.407Z,96359.95
2019-01-27T11:58:48.502Z,96355.87
2019-01-27T12:01:18.795Z,96351.33
2019-01-27T12:03:50.240Z,96347.79
2019-01-27T12:06:23.722Z,96337.77
2019-01-27T12:08:52.965Z,96346.58
2019-01-27T12:11:26.261Z,96350.55
2019-01-27T12:13:55.375Z,96344.84
2019-01-27T12:16:26.712Z,96341.70
2019-01-27T12:18:55.897Z,96344.05
2019-01-27T12:21:26.185Z,96342.69
2019-01-27T12:23:55.321Z,96336.35
2019-01-27T12:26:24.502Z,96328.78
2019-01-27T12:28:54.887Z,96324.38
2019-01-27T12:31:26.047Z,96322.89
2019-01-27T12:33:58.712Z,96316.98
2019-01-27T12:36:31.399Z,96313.03
2019-01-27T12:39:00.760Z,96310.24
2019-01-27T12:41:31.616Z,96306.89
2019-01-27T12:44:01.335Z,96310.27
2019-01-27T12:46:35.880Z,96302.58
2019-01-27T12:49:05.166Z,96301.42
2019-01-27T12:51:34.243Z,96300.72
2019-01-27T12:54:04.664Z,96295.94
2019-01-27T12:56:35.100Z,96302.09
2019-01-27T12:59:04.214Z,96297.30
2019-01-27T13:01:35.573Z,96291.44
2019-01-27T13:04:04.741Z,96289.37
2019-01-27T13:06:34.980Z,96283.27
2019-01-27T13:09:05.975Z,96272.93
2019-01-27T13:11:36.259Z,96277.46
2019-01-27T13:14:05.406Z,96274.60
2019-01-27T13:16:35.635Z,96270.90
2019-01-27T13:19:04.721Z,96272.39
2019-01-27T13:21:33.808Z,96271.12
2019-01-27T13:24:03.102Z,96260.97
2019-01-27T13:26:33.436Z,96276.80
2019-01-27T13:29:04.858Z,96260.92
2019-01-27T13:31:33.936Z,96258.59
2019-01-27T13:34:03.053Z,96261.95
2019-01-27T13:36:32.171Z,96261.59
2019-01-27T13:39:01.704Z,96261.28
2019-01-27T13:41:30.780Z,96258.25
2019-01-27T13:44:02.096Z,96260.53
2019-01-27T13:46:31.129Z,96253.31
2019-01-27T13:49:02.302Z,96251.08
2019-01-27T13:51:31.382Z,96244.48
2019-01-27T13:54:00.962Z,96242.19
2019-01-27T13:56:30.072Z,96242.28
2019-01-27T13:58:59.195Z,96241.09
2019-01-27T14:01:28.305Z,96238.06
2019-01-27T14:03:57.392Z,96231.46
2019-01-27T14:06:26.605Z,96229.84
2019-01-27T14:08:55.690Z,96225.48
2019-01-27T14:11:24.795Z,96229.88
2019-01-27T14:13:53.825Z,96228.04
2019-01-27T14:16:23.044Z,96223.07
2019-01-27T14:18:52.289Z,96218.37
2019-01-27T14:21:22.852Z,96216.78
2019-01-27T14:23:51.987Z,96225.31
2019-01-27T14:26:21.637Z,96215.20
2019-01-27T14:28:50.695Z,96215.42
2019-01-27T14:31:21.348Z,96209.62
2019-01-27T14:33:52.765Z,96217.72
2019-01-27T14:36:21.969Z,96213.14
2019-01-27T14:38:51.055Z,96224.31
2019-01-27T14:41:21.545Z,96216.69
2019-01-27T14:43:50.702Z,96212.08
2019-01-27T14:46:19.749Z,96212.62
2019-01-27T14:48:48.963Z,96212.75
2019-01-27T14:51:18.135Z,96212.21
2019-01-27T14:53:47.304Z,96218.72
2019-01-27T14:56:16.462Z,96214.72
2019-01-27T14:58:45.503Z,96218.16
2019-01-27T15:01:14.587Z,96219.11
2019-01-27T15:03:43.810Z,96217.80
2019-01-27T15:06:12.932Z,96217.53
2019-01-27T15:08:45.909Z,96219.77
2019-01-27T15:11:13.204Z,96221.34
2019-01-27T15:13:42.365Z,96224.61
2019-01-27T15:16:11.482Z,96225.45
2019-01-27T15:18:42.683Z,96222.13
2019-01-27T15:21:19.962Z,96223.73
2019-01-27T15:23:49.076Z,96215.08
2019-01-27T15:26:18.210Z,96221.80
2019-01-27T15:28:47.346Z,96222.27
2019-01-27T15:31:17.660Z,96220.07
2019-01-27T15:33:46.797Z,96213.80
2019-01-27T15:36:16.002Z,96212.83
2019-01-27T15:38:46.261Z,96214.64
2019-01-27T15:41:15.352Z,96220.50
2019-01-27T15:43:48.790Z,96222.55
2019-01-27T15:46:21.507Z,96226.05
2019-01-27T15:48:53.026Z,96231.97
2019-01-27T15:51:24.378Z,96225.41
2019-01-27T15:53:53.592Z,96234.88
2019-01-27T15:56:24.286Z,96235.55
2019-01-27T15:58:53.401Z,96233.18
2019-01-27T16:01:22.868Z,96233.95
2019-01-27T16:03:53.096Z,96236.14
2019-01-27T16:06:24.202Z,96238.19
2019-01-27T16:08:53.278Z,96240.23
2019-01-27T16:11:22.392Z,96247.51
2019-01-27T16:13:51.557Z,96250.14
2019-01-27T16:16:20.686Z,96248.83
2019-01-27T16:18:49.802Z,96250.59
2019-01-27T16:21:21.073Z,96253.54
2019-01-27T16:23:53.173Z,96269.85
2019-01-27T16:26:23.237Z,96263.06
2019-01-27T16:28:52.308Z,96267.84
2019-01-27T16:31:38.885Z,96263.28
2019-01-27T16:34:32.902Z,96260.27
2019-01-27T16:37:02.202Z,96267.51
2019-01-27T16:39:31.358Z,96260.47
2019-01-27T16:42:00.513Z,96259.88
2019-01-27T16:44:30.865Z,96261.64
2019-01-27T16:46:59.951Z,96267.77
2019-01-27T16:49:29.030Z,96266.28
2019-01-27T16:51:58.113Z,96268.47
2019-01-27T16:54:27.220Z,96279.92
2019-01-27T16:56:56.282Z,96283.30
2019-01-27T16:59:25.396Z,96283.60
2019-01-27T17:01:59.077Z,96289.67
2019-01-27T17:04:28.534Z,96292.34
2019-01-27T17:06:57.612Z,96293.69
2019-01-27T17:09:26.765Z,96296.66
2019-01-27T17:11:55.868Z,96302.02
2019-01-27T17:14:24.965Z,96301.14
2019-01-27T17:16:54.022Z,96308.73
2019-01-27T17:19:25.522Z,96316.41
2019-01-27T17:21:54.644Z,96311.14
2019-01-27T17:24:25.667Z,96321.02
2019-01-27T17:26:56.046Z,96316.06
2019-01-27T17:29:25.345Z,96328.18
2019-01-27T17:31:54.706Z,96332.48
2019-01-27T17:34:23.805Z,96337.19
2019-01-27T17:36:52.944Z,96347.42
2019-01-27T17:39:24.973Z,96355.88
2019-01-27T17:41:54.093Z,96363.31
2019-01-27T17:44:26.293Z,96367.86
2019-01-27T17:46:55.391Z,96370.89
2019-01-27T17:49:24.430Z,96376.15
2019-01-27T17:51:55.758Z,96388.63
2019-01-27T17:54:25.180Z,96400.14
2019-01-27T17:57:12.333Z,96406.42
2019-01-27T17:59:50.470Z,96414.77
2019-01-27T18:02:36.966Z,96417.86
2019-01-27T18:05:34.182Z,96423.27
2019-01-27T18:08:07.746Z,96428.70
2019-01-27T18:10:54.625Z,96433.95
2019-01-27T18:13:44.819Z,96446.31
2019-01-27T18:16:14.312Z,96456.67
2019-01-27T18:18:46.048Z,96461.13
2019-01-27T18:21:15.115Z,96474.61
2019-01-27T18:23:45.286Z,96483.00
2019-01-27T18:26:14.420Z,96484.52
2019-01-27T18:28:43.573Z,96504.41
2019-01-27T18:31:12.685Z,96505.56
2019-01-27T18:33:44.032Z,96510.14
2019-01-27T18:36:13.143Z,96518.69
2019-01-27T18:38:42.241Z,96529.70
2019-01-27T18:41:11.279Z,96536.77
2019-01-27T18:43:40.389Z,96543.66
2019-01-27T18:46:09.435Z,96547.70
2019-01-27T18:48:38.472Z,96567.58
2019-01-27T18:51:09.547Z,96579.89
2019-01-27T18:54:02.394Z,96588.23
2019-01-27T18:56:40.769Z,96599.05
2019-01-27T18:59:28.741Z,96608.40
2019-01-27T19:02:07.125Z,96617.41
2019-01-27T19:04:53.765Z,96615.88
2019-01-27T19:07:40.574Z,96635.26
2019-01-27T19:10:35.882Z,96640.33
2019-01-27T19:13:33.416Z,96651.28
2019-01-27T19:16:30.746Z,96660.31
2019-01-27T19:19:18.759Z,96663.57
2019-01-27T19:22:25.590Z,96665.77
2019-01-27T19:25:12.921Z,96668.50
2019-01-27T19:28:13.693Z,96678.55
2019-01-27T19:30:53.906Z,96678.81
2019-01-27T19:34:02.472Z,96695.86
2019-01-27T19:36:59.357Z,96696.84
2019-01-27T19:39:46.072Z,96703.25
2019-01-27T19:42:32.526Z,96709.22
2019-01-27T19:45:16.672Z,96718.20
2019-01-27T19:47:57.440Z,96726.78
2019-01-27T19:50:44.395Z,96740.92
2019-01-27T19:53:29.401Z,96748.50
2019-01-27T19:56:13.291Z,96762.51
2019-01-27T19:58:55.739Z,96768.26
2019-01-27T20:02:01.953Z,96775.81
2019-01-27T20:04:44.152Z,96779.30
2019-01-27T20:07:32.139Z,96786.11
2019-01-27T20:10:21.745Z,96788.86
2019-01-27T20:13:13.160Z,96793.92
2019-01-27T20:16:04.366Z,96794.00
2019-01-27T20:18:55.184Z,96801.78
2019-01-27T20:21:53.650Z,96797.34
2019-01-27T20:24:40.490Z,96800.22
2019-01-27T20:27:18.484Z,96803.96
2019-01-27T20:30:09.888Z,96807.37
2019-01-27T20:32:52.289Z,96808.23
2019-01-27T20:35:40.835Z,96804.61
2019-01-27T20:38:28.813Z,96816.99
2019-01-27T20:41:19.815Z,96821.32
2019-01-27T20:44:08.902Z,96814.13
2019-01-27T20:46:50.453Z,96818.98
2019-01-27T20:49:44.307Z,96820.98
2019-01-27T20:52:24.876Z,96829.33
2019-01-27T20:55:21.638Z,96834.64
2019-01-27T20:58:25.019Z,96833.58
2019-01-27T21:01:23.142Z,96834.22
2019-01-27T21:04:11.114Z,96836.00
2019-01-27T21:07:07.055Z,96838.17
2019-01-27T21:09:54.039Z,96838.63
2019-01-27T21:12:46.774Z,96838.03
2019-01-27T21:15:55.055Z,96845.31
2019-01-27T21:18:36.033Z,96836.78
2019-01-27T21:21:05.088Z,96844.64
2019-01-27T21:23:34.129Z,96844.52
2019-01-27T21:26:04.464Z,96848.37
2019-01-27T21:28:33.523Z,96846.81
2019-01-27T21:31:02.746Z,96853.37
2019-01-27T21:33:31.788Z,96854.47
2019-01-27T21:36:04.436Z,96859.97
2019-01-27T21:38:33.548Z,96864.70
2019-01-27T21:41:04.864Z,96857.35
2019-01-27T21:43:33.910Z,96859.26
2019-01-27T21:46:03.050Z,96861.55
2019-01-27T21:48:32.104Z,96861.69
2019-01-27T21:51:01.170Z,96864.48
2019-01-27T21:53:30.247Z,96867.83
2019-01-27T21:55:59.325Z,96869.83
2019-01-27T21:58:28.437Z,96878.17
2019-01-27T22:00:57.504Z,96875.05
2019-01-27T22:03:28.360Z,96887.04
2019-01-27T22:05:57.428Z,96882.77
2019-01-27T22:08:26.503Z,96889.86
2019-01-27T22:10:55.512Z,96896.55
2019-01-27T22:13:24.645Z,96896.73
2019-01-27T22:15:53.689Z,96903.28
2019-01-27T22:18:22.889Z,96901.98
2019-01-27T22:20:51.949Z,96900.49
2019-01-27T22:23:21.064Z,96901.59
2019-01-27T22:25:50.145Z,96908.53
2019-01-27T22:28:19.203Z,96906.58
2019-01-27T22:30:48.310Z,96910.17
2019-01-27T22:33:17.556Z,96917.53
2019-01-27T22:35:48.640Z,96913.07
2019-01-27T22:38:17.686Z,96915.56
2019-01-27T22:40:46.710Z,96918.77
2019-01-27T22:43:15.915Z,96910.52
2019-01-27T22:45:45.046Z,96918.56
2019-01-27T22:48:14.102Z,96922.56
2019-01-27T22:50:43.260Z,96924.46
2019-01-27T22:53:12.343Z,96931.23
2019-01-27T22:55:41.584Z,96940.86
2019-01-27T22:58:14.534Z,96945.77
2019-01-27T23:00:59.016Z,96944.87
2019-01-27T23:03:29.167Z,96943.73
2019-01-27T23:05:59.548Z,96949.59
2019-01-27T23:08:29.391Z,96952.66
2019-01-27T23:10:58.427Z,96954.11
2019-01-27T23:13:27.444Z,96955.62
2019-01-27T23:15:56.677Z,96960.27
2019-01-27T23:18:25.797Z,96955.89
2019-01-27T23:20:55.000Z,96953.66
2019-01-27T23:23:24.090Z,96950.89
2019-01-27T23:25:55.582Z,96962.62
2019-01-27T23:28:25.157Z,96968.78
2019-01-27T23:30:54.217Z,96961.84
2019-01-27T23:33:24.389Z,96967.22
2019-01-27T23:35:53.658Z,96967.16
2019-01-27T23:38:24.055Z,96973.05
2019-01-27T23:40:55.223Z,96976.67
2019-01-27T23:43:24.363Z,96986.75
2019-01-27T23:45:53.571Z,96989.13
2019-01-27T23:48:25.902Z,96987.03
2019-01-27T23:50:54.950Z,96995.28
2019-01-27T23:53:23.979Z,96998.30
2019-01-27T23:55:53.094Z,96995.28
2019-01-27T23:58:22.211Z,96995.41
